DAL459 TNCM-KJFK
Flight info
| Callsign | DAL459 |
|---|---|
| Flight time | 4h 41m |
| Altitude | 34000 |
| Route | MODOR2 TRNKY DCT CAFFE DCT THANK L456 HANCY/M083F340 L456 EMAKO/M083F360 L456 DARUX L459 SAVIK/N0479F360 DCT YAALE/N0477F370 Y495 MOUGH/N0478F360 Y495 CAMRN |
| Aircraft | L101/H-SDFGHIRWXY/S |
Departure
| Time | 2026-05-09 09:13 |
|---|---|
| Airport | Princess Juliana International Airport (TNCM) |
Arrival
| Time | 2026-05-09 13:55 |
|---|---|
| Airport | John F. Kennedy International Airport (KJFK) |
| Time | Latitude | Longitude | Altitude | Speed | Heading |
|---|---|---|---|---|---|
| 2026-05-09 08:54 | 18.04321 | -63.11361 | 26 ft | 0 kts | 352° |
| 2026-05-09 09:07 | 18.04316 | -63.11360 | 31 ft | 3 kts | 352° |
| 2026-05-09 09:07 | 18.04298 | -63.11358 | 26 ft | 3 kts | 352° |
| 2026-05-09 09:07 | 18.04281 | -63.11355 | 31 ft | 3 kts | 352° |
| 2026-05-09 09:08 | 18.04263 | -63.11350 | 29 ft | 3 kts | 316° |
| 2026-05-09 09:08 | 18.04255 | -63.11334 | 31 ft | 2 kts | 266° |
| 2026-05-09 09:08 | 18.04255 | -63.11333 | 31 ft | 0 kts | 266° |
| 2026-05-09 09:10 | 18.04254 | -63.11336 | 31 ft | 2 kts | 266° |
| 2026-05-09 09:10 | 18.04250 | -63.11360 | 31 ft | 5 kts | 259° |
| 2026-05-09 09:10 | 18.04241 | -63.11407 | 31 ft | 9 kts | 259° |
| 2026-05-09 09:11 | 18.04221 | -63.11474 | 27 ft | 11 kts | 248° |
| 2026-05-09 09:11 | 18.04173 | -63.11537 | 29 ft | 12 kts | 230° |
| 2026-05-09 09:11 | 18.04114 | -63.11613 | 31 ft | 15 kts | 231° |
| 2026-05-09 09:11 | 18.04062 | -63.11710 | 27 ft | 15 kts | 258° |
| 2026-05-09 09:12 | 18.04043 | -63.11831 | 29 ft | 18 kts | 260° |
| 2026-05-09 09:12 | 18.03989 | -63.11949 | 26 ft | 18 kts | 216° |
| 2026-05-09 09:12 | 18.03943 | -63.11928 | 27 ft | 3 kts | 75° |
| 2026-05-09 09:12 | 18.03949 | -63.11898 | 27 ft | 4 kts | 81° |
| 2026-05-09 09:13 | 18.03950 | -63.11891 | 27 ft | 10 kts | 81° |
| 2026-05-09 09:13 | 18.04010 | -63.11482 | 26 ft | 102 kts | 81° |
| 2026-05-09 09:13 | 18.04154 | -63.10464 | 112 ft | 171 kts | 82° |
| 2026-05-09 09:13 | 18.04262 | -63.09122 | 817 ft | 189 kts | 96° |
| 2026-05-09 09:14 | 18.03680 | -63.07820 | 1676 ft | 215 kts | 128° |
| 2026-05-09 09:14 | 18.02430 | -63.06943 | 1450 ft | 229 kts | 160° |
| 2026-05-09 09:14 | 18.00801 | -63.06785 | 1317 ft | 225 kts | 173° |
| 2026-05-09 09:14 | 17.99325 | -63.06988 | 1484 ft | 220 kts | 204° |
| 2026-05-09 09:15 | 17.98275 | -63.08161 | 1220 ft | 227 kts | 250° |
| 2026-05-09 09:15 | 17.98274 | -63.09914 | 1540 ft | 266 kts | 299° |
| 2026-05-09 09:15 | 17.99611 | -63.11344 | 2396 ft | 290 kts | 335° |
| 2026-05-09 09:15 | 18.01562 | -63.12009 | 3469 ft | 305 kts | 350° |
| 2026-05-09 09:16 | 18.03659 | -63.12522 | 4806 ft | 303 kts | 351° |
| 2026-05-09 09:16 | 18.07754 | -63.13501 | 5855 ft | 305 kts | 351° |
| 2026-05-09 09:16 | 18.09825 | -63.14019 | 6404 ft | 305 kts | 349° |
| 2026-05-09 09:17 | 18.11901 | -63.14587 | 7150 ft | 309 kts | 352° |
| 2026-05-09 09:17 | 18.14006 | -63.14754 | 7753 ft | 306 kts | 5° |
| 2026-05-09 09:17 | 18.16132 | -63.14619 | 8406 ft | 307 kts | 6° |
| 2026-05-09 09:18 | 18.18134 | -63.14498 | 9031 ft | 308 kts | 9° |
| 2026-05-09 09:19 | 18.20286 | -63.14337 | 9746 ft | 312 kts | 1° |
| 2026-05-09 09:19 | 18.22467 | -63.14642 | 10424 ft | 318 kts | 350° |
| 2026-05-09 09:19 | 18.24592 | -63.15263 | 11131 ft | 322 kts | 347° |
| 2026-05-09 09:19 | 18.26758 | -63.15904 | 11907 ft | 323 kts | 348° |
| 2026-05-09 09:20 | 18.28963 | -63.16425 | 12711 ft | 325 kts | 351° |
| 2026-05-09 09:20 | 18.31197 | -63.16859 | 13605 ft | 327 kts | 352° |
| 2026-05-09 09:20 | 18.33438 | -63.17274 | 14416 ft | 330 kts | 352° |
| 2026-05-09 09:20 | 18.35720 | -63.17716 | 15228 ft | 335 kts | 351° |
| 2026-05-09 09:21 | 18.38009 | -63.18177 | 16041 ft | 333 kts | 349° |
| 2026-05-09 09:21 | 18.40183 | -63.18919 | 16863 ft | 332 kts | 332° |
| 2026-05-09 09:21 | 18.42047 | -63.20342 | 17752 ft | 330 kts | 319° |
| 2026-05-09 09:21 | 18.43781 | -63.21914 | 18668 ft | 325 kts | 322° |
| 2026-05-09 09:22 | 18.45613 | -63.23281 | 19455 ft | 321 kts | 327° |
| 2026-05-09 09:22 | 18.47453 | -63.24541 | 20258 ft | 318 kts | 326° |
| 2026-05-09 09:22 | 18.49252 | -63.25874 | 21087 ft | 313 kts | 322° |
| 2026-05-09 09:22 | 18.50953 | -63.27289 | 21944 ft | 309 kts | 320° |
| 2026-05-09 09:23 | 18.52611 | -63.28761 | 22542 ft | 315 kts | 319° |
| 2026-05-09 09:23 | 18.54300 | -63.30289 | 23118 ft | 321 kts | 318° |
| 2026-05-09 09:23 | 18.55995 | -63.31825 | 23719 ft | 326 kts | 318° |
| 2026-05-09 09:23 | 18.57720 | -63.33388 | 24206 ft | 333 kts | 319° |
| 2026-05-09 09:24 | 18.59496 | -63.35001 | 24725 ft | 339 kts | 319° |
| 2026-05-09 09:24 | 18.61301 | -63.36646 | 25242 ft | 345 kts | 319° |
| 2026-05-09 09:24 | 18.63119 | -63.38306 | 25771 ft | 352 kts | 319° |
| 2026-05-09 09:24 | 18.64996 | -63.40020 | 26309 ft | 358 kts | 319° |
| 2026-05-09 09:25 | 18.66903 | -63.41763 | 26861 ft | 364 kts | 319° |
| 2026-05-09 09:25 | 18.68817 | -63.43514 | 27423 ft | 370 kts | 320° |
| 2026-05-09 09:25 | 18.70782 | -63.45314 | 28002 ft | 376 kts | 320° |
| 2026-05-09 09:25 | 18.72760 | -63.47128 | 28587 ft | 380 kts | 320° |
| 2026-05-09 09:26 | 18.74765 | -63.48966 | 29179 ft | 384 kts | 320° |
| 2026-05-09 09:26 | 18.76805 | -63.50834 | 29791 ft | 388 kts | 320° |
| 2026-05-09 09:26 | 18.78858 | -63.52717 | 30382 ft | 390 kts | 321° |
| 2026-05-09 09:26 | 18.80897 | -63.54587 | 30900 ft | 392 kts | 321° |
| 2026-05-09 09:27 | 18.82969 | -63.56490 | 31441 ft | 394 kts | 321° |
| 2026-05-09 09:27 | 18.85019 | -63.58372 | 31999 ft | 395 kts | 321° |
| 2026-05-09 09:27 | 18.87107 | -63.60290 | 32549 ft | 395 kts | 321° |
| 2026-05-09 09:27 | 18.89182 | -63.62197 | 33141 ft | 395 kts | 321° |
| 2026-05-09 09:28 | 18.91253 | -63.64102 | 33711 ft | 395 kts | 322° |
| 2026-05-09 09:28 | 18.93347 | -63.66025 | 33950 ft | 409 kts | 322° |
| 2026-05-09 09:28 | 18.95554 | -63.68046 | 34004 ft | 427 kts | 322° |
| 2026-05-09 09:28 | 18.97820 | -63.70124 | 34031 ft | 445 kts | 321° |
| 2026-05-09 09:29 | 19.00206 | -63.72316 | 34049 ft | 461 kts | 321° |
| 2026-05-09 09:29 | 19.02657 | -63.74576 | 34035 ft | 468 kts | 321° |
| 2026-05-09 09:29 | 19.07571 | -63.79115 | 34046 ft | 472 kts | 321° |
| 2026-05-09 09:30 | 19.12526 | -63.83692 | 34049 ft | 473 kts | 321° |
| 2026-05-09 09:30 | 19.17502 | -63.88287 | 34054 ft | 473 kts | 321° |
| 2026-05-09 09:31 | 19.22440 | -63.92852 | 34057 ft | 473 kts | 321° |
| 2026-05-09 09:32 | 19.29875 | -63.99730 | 34056 ft | 473 kts | 321° |
| 2026-05-09 09:32 | 19.34807 | -64.04297 | 34056 ft | 473 kts | 321° |
| 2026-05-09 09:33 | 19.39785 | -64.08910 | 34051 ft | 473 kts | 321° |
| 2026-05-09 09:33 | 19.44712 | -64.13482 | 34052 ft | 473 kts | 321° |
| 2026-05-09 09:34 | 19.49686 | -64.18100 | 34058 ft | 473 kts | 321° |
| 2026-05-09 09:34 | 19.54619 | -64.22683 | 34055 ft | 473 kts | 321° |
| 2026-05-09 09:36 | 19.64235 | -64.31629 | 34052 ft | 473 kts | 321° |
| 2026-05-09 09:37 | 19.69198 | -64.36251 | 34056 ft | 473 kts | 321° |
| 2026-05-09 09:37 | 19.73319 | -64.40093 | 34057 ft | 473 kts | 321° |
| 2026-05-09 09:38 | 19.76345 | -64.42916 | 34058 ft | 473 kts | 321° |
| 2026-05-09 10:27 | 19.76490 | -64.43051 | 34063 ft | 473 kts | 321° |
| 2026-05-09 10:27 | 19.77700 | -64.44188 | 34742 ft | 445 kts | 320° |
| 2026-05-09 10:28 | 19.79433 | -64.45741 | 37309 ft | 374 kts | 324° |
| 2026-05-09 10:28 | 19.81382 | -64.47353 | 39127 ft | 358 kts | 323° |
| 2026-05-09 10:28 | 19.83326 | -64.49101 | 38773 ft | 381 kts | 320° |
| 2026-05-09 10:28 | 19.85332 | -64.51087 | 38247 ft | 407 kts | 319° |
| 2026-05-09 10:29 | 19.87443 | -64.53197 | 37889 ft | 422 kts | 320° |
| 2026-05-09 10:29 | 19.89640 | -64.55321 | 37603 ft | 431 kts | 320° |
| 2026-05-09 10:29 | 19.91904 | -64.57452 | 37371 ft | 435 kts | 321° |
| 2026-05-09 10:29 | 19.94159 | -64.59559 | 37161 ft | 438 kts | 321° |
| 2026-05-09 10:30 | 19.96453 | -64.61706 | 36956 ft | 440 kts | 321° |
| 2026-05-09 10:30 | 19.98747 | -64.63860 | 36766 ft | 441 kts | 321° |
| 2026-05-09 10:30 | 20.01066 | -64.66038 | 36569 ft | 442 kts | 321° |
| 2026-05-09 10:30 | 20.03348 | -64.68180 | 36367 ft | 443 kts | 321° |
| 2026-05-09 10:31 | 20.05658 | -64.70347 | 36194 ft | 443 kts | 321° |
| 2026-05-09 10:31 | 20.10044 | -64.74475 | 36106 ft | 450 kts | 320° |
| 2026-05-09 10:32 | 20.14760 | -64.79005 | 36083 ft | 460 kts | 320° |
| 2026-05-09 10:32 | 20.19539 | -64.83599 | 36075 ft | 463 kts | 320° |
| 2026-05-09 10:33 | 20.24309 | -64.88144 | 36081 ft | 463 kts | 320° |
| 2026-05-09 10:33 | 20.29115 | -64.92723 | 36078 ft | 463 kts | 320° |
| 2026-05-09 10:34 | 20.33916 | -64.97299 | 36083 ft | 463 kts | 320° |
| 2026-05-09 10:34 | 20.41122 | -65.04172 | 36078 ft | 464 kts | 320° |
| 2026-05-09 10:35 | 20.45930 | -65.08762 | 36079 ft | 464 kts | 320° |
| 2026-05-09 10:35 | 20.50737 | -65.13356 | 36079 ft | 464 kts | 320° |
| 2026-05-09 10:36 | 20.55543 | -65.17954 | 36083 ft | 464 kts | 320° |
| 2026-05-09 10:36 | 20.60349 | -65.22554 | 36083 ft | 463 kts | 320° |
| 2026-05-09 10:37 | 20.65153 | -65.27157 | 36083 ft | 463 kts | 320° |
| 2026-05-09 10:37 | 20.69913 | -65.31722 | 36077 ft | 463 kts | 320° |
| 2026-05-09 10:38 | 20.74715 | -65.36331 | 36080 ft | 464 kts | 320° |
| 2026-05-09 10:38 | 20.79519 | -65.40946 | 36077 ft | 464 kts | 320° |
| 2026-05-09 10:39 | 20.84313 | -65.45555 | 36081 ft | 464 kts | 320° |
| 2026-05-09 10:39 | 20.89112 | -65.50174 | 36075 ft | 464 kts | 320° |
| 2026-05-09 10:40 | 20.93906 | -65.54792 | 36079 ft | 463 kts | 320° |
| 2026-05-09 10:40 | 20.98693 | -65.59407 | 36082 ft | 463 kts | 320° |
| 2026-05-09 10:41 | 21.03477 | -65.64023 | 36084 ft | 463 kts | 320° |
| 2026-05-09 10:41 | 21.08262 | -65.68645 | 36075 ft | 463 kts | 320° |
| 2026-05-09 10:42 | 21.13049 | -65.73273 | 36078 ft | 463 kts | 320° |
| 2026-05-09 10:42 | 21.17824 | -65.77893 | 36084 ft | 463 kts | 320° |
| 2026-05-09 10:43 | 21.22588 | -65.82507 | 36081 ft | 463 kts | 320° |
| 2026-05-09 10:43 | 21.27363 | -65.87135 | 36081 ft | 463 kts | 320° |
| 2026-05-09 10:44 | 21.32138 | -65.91768 | 36087 ft | 462 kts | 319° |
| 2026-05-09 10:44 | 21.36903 | -65.96396 | 36085 ft | 462 kts | 319° |
| 2026-05-09 10:46 | 21.50229 | -66.05170 | 36090 ft | 457 kts | 347° |
| 2026-05-09 10:46 | 21.56398 | -66.06937 | 36089 ft | 459 kts | 344° |
| 2026-05-09 10:47 | 21.62560 | -66.08583 | 36092 ft | 459 kts | 347° |
| 2026-05-09 10:47 | 21.68822 | -66.09918 | 36094 ft | 459 kts | 348° |
| 2026-05-09 10:48 | 21.75102 | -66.11226 | 36087 ft | 459 kts | 348° |
| 2026-05-09 10:48 | 21.81384 | -66.12522 | 36093 ft | 459 kts | 348° |
| 2026-05-09 10:49 | 21.87651 | -66.13801 | 36089 ft | 459 kts | 349° |
| 2026-05-09 10:49 | 21.93936 | -66.15081 | 36096 ft | 459 kts | 348° |
| 2026-05-09 10:50 | 22.00219 | -66.16363 | 36096 ft | 459 kts | 348° |
| 2026-05-09 10:50 | 22.06452 | -66.17632 | 36096 ft | 459 kts | 348° |
| 2026-05-09 10:51 | 22.12726 | -66.18917 | 36097 ft | 459 kts | 348° |
| 2026-05-09 10:51 | 22.18997 | -66.20203 | 36098 ft | 459 kts | 348° |
| 2026-05-09 10:52 | 22.25271 | -66.21485 | 36102 ft | 459 kts | 348° |
| 2026-05-09 10:52 | 22.31542 | -66.22770 | 36104 ft | 458 kts | 348° |
| 2026-05-09 10:53 | 22.37811 | -66.24055 | 36101 ft | 458 kts | 348° |
| 2026-05-09 10:53 | 22.44046 | -66.25334 | 36096 ft | 458 kts | 348° |
| 2026-05-09 10:54 | 22.50335 | -66.26624 | 36098 ft | 460 kts | 348° |
| 2026-05-09 10:54 | 22.56620 | -66.27915 | 36111 ft | 460 kts | 347° |
| 2026-05-09 10:55 | 22.62877 | -66.29202 | 36111 ft | 459 kts | 347° |
| 2026-05-09 10:55 | 22.69160 | -66.30495 | 36113 ft | 459 kts | 347° |
| 2026-05-09 10:56 | 22.75451 | -66.31791 | 36109 ft | 459 kts | 347° |
| 2026-05-09 10:56 | 22.81730 | -66.33085 | 36105 ft | 459 kts | 347° |
| 2026-05-09 10:57 | 22.88020 | -66.34383 | 36100 ft | 460 kts | 347° |
| 2026-05-09 10:57 | 22.94304 | -66.35679 | 36106 ft | 459 kts | 347° |
| 2026-05-09 10:58 | 23.00574 | -66.36981 | 36105 ft | 459 kts | 347° |
| 2026-05-09 10:58 | 23.06869 | -66.38291 | 36104 ft | 460 kts | 347° |
| 2026-05-09 10:59 | 23.13141 | -66.39591 | 36103 ft | 459 kts | 347° |
| 2026-05-09 10:59 | 23.19431 | -66.40895 | 36106 ft | 459 kts | 347° |
| 2026-05-09 11:00 | 23.25700 | -66.42198 | 36109 ft | 459 kts | 347° |
| 2026-05-09 11:00 | 23.31938 | -66.43495 | 36108 ft | 459 kts | 347° |
| 2026-05-09 11:01 | 23.38215 | -66.44800 | 36116 ft | 459 kts | 347° |
| 2026-05-09 11:01 | 23.44496 | -66.46107 | 36113 ft | 459 kts | 347° |
| 2026-05-09 11:02 | 23.50760 | -66.47413 | 36117 ft | 459 kts | 346° |
| 2026-05-09 11:02 | 23.57046 | -66.48725 | 36110 ft | 459 kts | 346° |
| 2026-05-09 11:03 | 23.63312 | -66.50033 | 36107 ft | 459 kts | 346° |
| 2026-05-09 11:03 | 23.69591 | -66.51345 | 36108 ft | 459 kts | 346° |
| 2026-05-09 11:04 | 23.75866 | -66.52657 | 36103 ft | 459 kts | 346° |
| 2026-05-09 11:04 | 23.82139 | -66.53970 | 36113 ft | 459 kts | 346° |
| 2026-05-09 11:05 | 23.88371 | -66.55277 | 36117 ft | 459 kts | 346° |
| 2026-05-09 11:05 | 23.94648 | -66.56594 | 36114 ft | 459 kts | 346° |
| 2026-05-09 11:06 | 24.00917 | -66.57910 | 36120 ft | 459 kts | 346° |
| 2026-05-09 11:06 | 24.07204 | -66.59232 | 36124 ft | 460 kts | 345° |
| 2026-05-09 11:07 | 24.13451 | -66.60546 | 36119 ft | 459 kts | 345° |
| 2026-05-09 11:07 | 24.19724 | -66.61868 | 36117 ft | 459 kts | 345° |
| 2026-05-09 11:08 | 24.26012 | -66.63193 | 36110 ft | 459 kts | 345° |
| 2026-05-09 11:08 | 24.32285 | -66.64517 | 36123 ft | 459 kts | 345° |
| 2026-05-09 11:09 | 24.38558 | -66.65841 | 36123 ft | 459 kts | 345° |
| 2026-05-09 11:09 | 24.44826 | -66.67166 | 36113 ft | 458 kts | 345° |
| 2026-05-09 11:10 | 24.51091 | -66.68494 | 36113 ft | 458 kts | 345° |
| 2026-05-09 11:10 | 24.57338 | -66.69818 | 36116 ft | 458 kts | 345° |
| 2026-05-09 11:11 | 24.62550 | -66.70923 | 36127 ft | 458 kts | 345° |
| 2026-05-09 11:11 | 24.68785 | -66.72247 | 36127 ft | 458 kts | 345° |
| 2026-05-09 11:12 | 24.75024 | -66.73572 | 36126 ft | 457 kts | 345° |
| 2026-05-09 11:12 | 24.81268 | -66.74901 | 36125 ft | 457 kts | 345° |
| 2026-05-09 11:13 | 24.87510 | -66.76230 | 36118 ft | 457 kts | 345° |
| 2026-05-09 11:13 | 24.93749 | -66.77560 | 36120 ft | 457 kts | 345° |
| 2026-05-09 11:14 | 24.99996 | -66.78892 | 36123 ft | 456 kts | 345° |
| 2026-05-09 11:14 | 25.06228 | -66.80223 | 36124 ft | 456 kts | 345° |
| 2026-05-09 11:15 | 25.12416 | -66.81546 | 36127 ft | 456 kts | 345° |
| 2026-05-09 11:15 | 25.18637 | -66.82877 | 36126 ft | 455 kts | 345° |
| 2026-05-09 11:16 | 25.24864 | -66.84211 | 36124 ft | 455 kts | 345° |
| 2026-05-09 11:16 | 25.31072 | -66.85542 | 36125 ft | 454 kts | 345° |
| 2026-05-09 11:17 | 25.37280 | -66.86875 | 36125 ft | 453 kts | 345° |
| 2026-05-09 11:17 | 25.43473 | -66.88206 | 36124 ft | 453 kts | 345° |
| 2026-05-09 11:18 | 25.49664 | -66.89538 | 36126 ft | 453 kts | 345° |
| 2026-05-09 11:18 | 25.55861 | -66.90873 | 36126 ft | 453 kts | 345° |
| 2026-05-09 11:19 | 25.62014 | -66.92197 | 36129 ft | 452 kts | 344° |
| 2026-05-09 11:19 | 25.68190 | -66.93533 | 36124 ft | 452 kts | 344° |
| 2026-05-09 11:20 | 25.74367 | -66.94868 | 36125 ft | 452 kts | 344° |
| 2026-05-09 11:20 | 25.80540 | -66.96203 | 36126 ft | 452 kts | 344° |
| 2026-05-09 11:21 | 25.86715 | -66.97540 | 36128 ft | 452 kts | 344° |
| 2026-05-09 11:21 | 25.92901 | -66.98881 | 36132 ft | 452 kts | 344° |
| 2026-05-09 11:22 | 25.99083 | -67.00222 | 36130 ft | 452 kts | 344° |
| 2026-05-09 11:22 | 26.05260 | -67.01564 | 36129 ft | 452 kts | 344° |
| 2026-05-09 11:23 | 26.11425 | -67.02904 | 36127 ft | 452 kts | 344° |
| 2026-05-09 11:23 | 26.17568 | -67.04240 | 36130 ft | 452 kts | 344° |
| 2026-05-09 11:24 | 26.23741 | -67.05586 | 36132 ft | 452 kts | 344° |
| 2026-05-09 11:24 | 26.29911 | -67.06933 | 36127 ft | 452 kts | 344° |
| 2026-05-09 11:25 | 26.36085 | -67.08281 | 36124 ft | 452 kts | 344° |
| 2026-05-09 11:25 | 26.42258 | -67.09630 | 36126 ft | 452 kts | 344° |
| 2026-05-09 11:26 | 26.48430 | -67.10981 | 36136 ft | 453 kts | 343° |
| 2026-05-09 11:26 | 26.54628 | -67.12340 | 36130 ft | 453 kts | 343° |
| 2026-05-09 11:27 | 26.60813 | -67.13696 | 36130 ft | 453 kts | 343° |
| 2026-05-09 11:27 | 26.66968 | -67.15047 | 36130 ft | 453 kts | 343° |
| 2026-05-09 11:28 | 26.73160 | -67.16408 | 36131 ft | 453 kts | 343° |
| 2026-05-09 11:28 | 26.79360 | -67.17772 | 36133 ft | 454 kts | 343° |
| 2026-05-09 11:29 | 26.85568 | -67.19140 | 36127 ft | 454 kts | 343° |
| 2026-05-09 11:29 | 26.91772 | -67.20508 | 36129 ft | 455 kts | 343° |
| 2026-05-09 11:30 | 26.97981 | -67.21878 | 36133 ft | 455 kts | 343° |
| 2026-05-09 11:30 | 27.04150 | -67.23241 | 36143 ft | 454 kts | 343° |
| 2026-05-09 11:31 | 27.10340 | -67.24613 | 36135 ft | 454 kts | 343° |
| 2026-05-09 11:31 | 27.16523 | -67.26020 | 36132 ft | 453 kts | 343° |
| 2026-05-09 11:32 | 27.22720 | -67.27422 | 36129 ft | 454 kts | 343° |
| 2026-05-09 11:32 | 27.28916 | -67.28801 | 36130 ft | 454 kts | 343° |
| 2026-05-09 11:33 | 27.35100 | -67.30177 | 36137 ft | 453 kts | 342° |
| 2026-05-09 11:33 | 27.44369 | -67.32243 | 36134 ft | 452 kts | 342° |
| 2026-05-09 11:34 | 27.50535 | -67.33619 | 36132 ft | 452 kts | 342° |
| 2026-05-09 11:34 | 27.56671 | -67.34989 | 36133 ft | 452 kts | 342° |
| 2026-05-09 11:35 | 27.62841 | -67.36367 | 36144 ft | 452 kts | 342° |
| 2026-05-09 11:35 | 27.69000 | -67.37745 | 36133 ft | 451 kts | 342° |
| 2026-05-09 11:36 | 27.75154 | -67.39125 | 36131 ft | 450 kts | 342° |
| 2026-05-09 11:36 | 27.81299 | -67.40503 | 36128 ft | 450 kts | 342° |
| 2026-05-09 11:37 | 27.87448 | -67.41883 | 36131 ft | 450 kts | 342° |
| 2026-05-09 11:37 | 27.93596 | -67.43263 | 36120 ft | 450 kts | 342° |
| 2026-05-09 11:38 | 27.99735 | -67.44645 | 36137 ft | 450 kts | 342° |
| 2026-05-09 11:38 | 28.05872 | -67.46029 | 36117 ft | 450 kts | 342° |
| 2026-05-09 11:39 | 28.11990 | -67.47409 | 36122 ft | 450 kts | 342° |
| 2026-05-09 11:40 | 28.21203 | -67.49489 | 36138 ft | 449 kts | 341° |
| 2026-05-09 11:40 | 28.27342 | -67.50878 | 36129 ft | 449 kts | 341° |
| 2026-05-09 11:41 | 28.33465 | -67.52265 | 36126 ft | 449 kts | 341° |
| 2026-05-09 11:41 | 28.39593 | -67.53659 | 36131 ft | 449 kts | 341° |
| 2026-05-09 11:42 | 28.45689 | -67.55057 | 36126 ft | 449 kts | 341° |
| 2026-05-09 11:42 | 28.51806 | -67.56451 | 36136 ft | 448 kts | 341° |
| 2026-05-09 11:43 | 28.57918 | -67.57843 | 36129 ft | 447 kts | 341° |
| 2026-05-09 11:43 | 28.64027 | -67.59237 | 36133 ft | 447 kts | 341° |
| 2026-05-09 11:44 | 28.70134 | -67.60630 | 36130 ft | 447 kts | 341° |
| 2026-05-09 11:44 | 28.76241 | -67.62025 | 36129 ft | 447 kts | 341° |
| 2026-05-09 11:45 | 28.82335 | -67.63418 | 36129 ft | 447 kts | 341° |
| 2026-05-09 11:45 | 28.88437 | -67.64815 | 36131 ft | 447 kts | 341° |
| 2026-05-09 11:46 | 28.94544 | -67.66215 | 36129 ft | 447 kts | 341° |
| 2026-05-09 11:46 | 29.00634 | -67.67612 | 36126 ft | 447 kts | 341° |
| 2026-05-09 11:47 | 29.06711 | -67.69007 | 36133 ft | 447 kts | 341° |
| 2026-05-09 11:47 | 29.12810 | -67.70410 | 36131 ft | 447 kts | 341° |
| 2026-05-09 11:48 | 29.18899 | -67.71813 | 36123 ft | 447 kts | 341° |
| 2026-05-09 11:48 | 29.25002 | -67.73220 | 36123 ft | 447 kts | 341° |
| 2026-05-09 11:49 | 29.31100 | -67.74628 | 36127 ft | 447 kts | 341° |
| 2026-05-09 11:49 | 29.37159 | -67.76028 | 36134 ft | 447 kts | 341° |
| 2026-05-09 11:50 | 29.43295 | -67.77448 | 36127 ft | 447 kts | 341° |
| 2026-05-09 11:50 | 29.49352 | -67.78851 | 36127 ft | 447 kts | 341° |
| 2026-05-09 11:51 | 29.55461 | -67.80268 | 36124 ft | 447 kts | 341° |
| 2026-05-09 11:51 | 29.61560 | -67.81684 | 36133 ft | 447 kts | 341° |
| 2026-05-09 11:52 | 29.67660 | -67.83102 | 36130 ft | 447 kts | 341° |
| 2026-05-09 11:52 | 29.73760 | -67.84523 | 36128 ft | 447 kts | 341° |
| 2026-05-09 11:53 | 29.79853 | -67.85943 | 36127 ft | 447 kts | 341° |
| 2026-05-09 11:53 | 29.85942 | -67.87364 | 36128 ft | 447 kts | 341° |
| 2026-05-09 11:54 | 29.92033 | -67.88787 | 36139 ft | 446 kts | 340° |
| 2026-05-09 11:54 | 29.98078 | -67.90202 | 36133 ft | 446 kts | 340° |
| 2026-05-09 11:55 | 30.04164 | -67.91628 | 36129 ft | 446 kts | 340° |
| 2026-05-09 11:56 | 30.22411 | -67.95912 | 36132 ft | 445 kts | 340° |
| 2026-05-09 11:57 | 30.27463 | -67.97102 | 36131 ft | 445 kts | 340° |
| 2026-05-09 11:57 | 30.34550 | -67.98773 | 36131 ft | 445 kts | 340° |
| 2026-05-09 11:58 | 30.39589 | -67.99963 | 36138 ft | 445 kts | 340° |
| 2026-05-09 11:58 | 30.45663 | -68.01397 | 36141 ft | 444 kts | 340° |
| 2026-05-09 11:59 | 30.51711 | -68.02827 | 36138 ft | 443 kts | 340° |
| 2026-05-09 11:59 | 30.57761 | -68.04262 | 36138 ft | 443 kts | 340° |
| 2026-05-09 12:00 | 30.63764 | -68.05687 | 36138 ft | 443 kts | 340° |
| 2026-05-09 12:00 | 30.69803 | -68.07118 | 36173 ft | 443 kts | 340° |
| 2026-05-09 12:01 | 30.75857 | -68.08558 | 36147 ft | 442 kts | 339° |
| 2026-05-09 12:01 | 30.81891 | -68.09996 | 36141 ft | 442 kts | 339° |
| 2026-05-09 12:02 | 30.87922 | -68.11435 | 36139 ft | 442 kts | 339° |
| 2026-05-09 12:02 | 30.93919 | -68.12866 | 36144 ft | 442 kts | 339° |
| 2026-05-09 12:03 | 30.99949 | -68.14307 | 36148 ft | 442 kts | 339° |
| 2026-05-09 12:03 | 31.05983 | -68.15751 | 36146 ft | 442 kts | 339° |
| 2026-05-09 12:04 | 31.12027 | -68.17199 | 36145 ft | 442 kts | 339° |
| 2026-05-09 12:04 | 31.18054 | -68.18646 | 36151 ft | 442 kts | 339° |
| 2026-05-09 12:05 | 31.24091 | -68.20095 | 36142 ft | 442 kts | 339° |
| 2026-05-09 12:05 | 31.30119 | -68.21544 | 36162 ft | 442 kts | 339° |
| 2026-05-09 12:06 | 31.36102 | -68.22987 | 36153 ft | 442 kts | 339° |
| 2026-05-09 12:06 | 31.42163 | -68.24311 | 36151 ft | 442 kts | 339° |
| 2026-05-09 12:07 | 31.48159 | -68.25855 | 36157 ft | 440 kts | 338° |
| 2026-05-09 12:07 | 31.54158 | -68.27401 | 36156 ft | 441 kts | 339° |
| 2026-05-09 12:08 | 31.60147 | -68.28855 | 36159 ft | 442 kts | 339° |
| 2026-05-09 12:08 | 31.66164 | -68.30319 | 36162 ft | 442 kts | 339° |
| 2026-05-09 12:09 | 31.72195 | -68.31787 | 36155 ft | 442 kts | 339° |
| 2026-05-09 12:09 | 31.78216 | -68.33252 | 36189 ft | 442 kts | 339° |
| 2026-05-09 12:10 | 31.90271 | -68.36190 | 36162 ft | 443 kts | 338° |
| 2026-05-09 12:11 | 31.96304 | -68.37663 | 36158 ft | 443 kts | 339° |
| 2026-05-09 12:11 | 32.02353 | -68.39142 | 36166 ft | 443 kts | 338° |
| 2026-05-09 12:12 | 32.08346 | -68.40608 | 36176 ft | 443 kts | 338° |
| 2026-05-09 12:12 | 32.14427 | -68.42100 | 36165 ft | 444 kts | 338° |
| 2026-05-09 12:13 | 32.20441 | -68.43576 | 36158 ft | 444 kts | 338° |
| 2026-05-09 12:13 | 32.26487 | -68.45062 | 36161 ft | 444 kts | 338° |
| 2026-05-09 12:14 | 32.32548 | -68.46553 | 36199 ft | 444 kts | 338° |
| 2026-05-09 12:14 | 32.38593 | -68.48044 | 36176 ft | 445 kts | 338° |
| 2026-05-09 12:15 | 32.44672 | -68.49544 | 36174 ft | 445 kts | 338° |
| 2026-05-09 12:15 | 32.50728 | -68.51040 | 36174 ft | 445 kts | 338° |
| 2026-05-09 12:16 | 32.56761 | -68.52532 | 36174 ft | 445 kts | 338° |
| 2026-05-09 12:16 | 32.62828 | -68.54039 | 36176 ft | 444 kts | 338° |
| 2026-05-09 12:17 | 32.68883 | -68.55540 | 36181 ft | 444 kts | 338° |
| 2026-05-09 12:17 | 32.74935 | -68.57043 | 36181 ft | 444 kts | 338° |
| 2026-05-09 12:18 | 32.80990 | -68.58549 | 36180 ft | 444 kts | 338° |
| 2026-05-09 12:18 | 32.87032 | -68.60055 | 36198 ft | 444 kts | 338° |
| 2026-05-09 12:19 | 32.93046 | -68.61555 | 36185 ft | 444 kts | 338° |
| 2026-05-09 12:19 | 32.99105 | -68.63069 | 36180 ft | 444 kts | 338° |
| 2026-05-09 12:20 | 33.05152 | -68.64582 | 36183 ft | 444 kts | 338° |
| 2026-05-09 12:20 | 33.11204 | -68.66099 | 36221 ft | 444 kts | 338° |
| 2026-05-09 12:21 | 33.17237 | -68.67612 | 36190 ft | 444 kts | 338° |
| 2026-05-09 12:21 | 33.23251 | -68.69124 | 36186 ft | 444 kts | 338° |
| 2026-05-09 12:22 | 33.29296 | -68.70645 | 36188 ft | 444 kts | 338° |
| 2026-05-09 12:22 | 33.35382 | -68.72179 | 36188 ft | 444 kts | 338° |
| 2026-05-09 12:23 | 33.41393 | -68.73694 | 36195 ft | 444 kts | 338° |
| 2026-05-09 12:23 | 33.47426 | -68.75219 | 36187 ft | 444 kts | 338° |
| 2026-05-09 12:24 | 33.53472 | -68.76750 | 36188 ft | 444 kts | 338° |
| 2026-05-09 12:24 | 33.59517 | -68.78283 | 36187 ft | 443 kts | 338° |
| 2026-05-09 12:25 | 33.65554 | -68.79815 | 36203 ft | 444 kts | 338° |
| 2026-05-09 12:25 | 33.71600 | -68.81352 | 36195 ft | 444 kts | 338° |
| 2026-05-09 12:26 | 33.77614 | -68.82882 | 36193 ft | 444 kts | 338° |
| 2026-05-09 12:26 | 33.83657 | -68.84422 | 36192 ft | 444 kts | 338° |
| 2026-05-09 12:27 | 33.89707 | -68.85966 | 36222 ft | 444 kts | 338° |
| 2026-05-09 12:27 | 33.95741 | -68.87507 | 36192 ft | 443 kts | 337° |
| 2026-05-09 12:28 | 34.01771 | -68.89052 | 36194 ft | 443 kts | 337° |
| 2026-05-09 12:28 | 34.07802 | -68.90598 | 36194 ft | 442 kts | 337° |
| 2026-05-09 12:29 | 34.13792 | -68.92143 | 36193 ft | 442 kts | 337° |
| 2026-05-09 12:29 | 34.19809 | -68.93730 | 36194 ft | 442 kts | 337° |
| 2026-05-09 12:30 | 34.25826 | -68.95301 | 36194 ft | 442 kts | 337° |
| 2026-05-09 12:30 | 34.34861 | -68.97635 | 36196 ft | 442 kts | 337° |
| 2026-05-09 12:31 | 34.43879 | -68.99967 | 36198 ft | 441 kts | 337° |
| 2026-05-09 12:32 | 34.49870 | -69.01517 | 36195 ft | 440 kts | 337° |
| 2026-05-09 12:32 | 34.55815 | -69.03062 | 36194 ft | 440 kts | 337° |
| 2026-05-09 12:33 | 34.61799 | -69.04617 | 36196 ft | 440 kts | 337° |
| 2026-05-09 12:33 | 34.67773 | -69.06171 | 36205 ft | 439 kts | 337° |
| 2026-05-09 12:34 | 34.73742 | -69.07724 | 36193 ft | 438 kts | 337° |
| 2026-05-09 12:34 | 34.79690 | -69.09278 | 36191 ft | 437 kts | 337° |
| 2026-05-09 12:35 | 34.85618 | -69.10828 | 36192 ft | 437 kts | 337° |
| 2026-05-09 12:35 | 34.91572 | -69.12386 | 36227 ft | 437 kts | 336° |
| 2026-05-09 12:36 | 34.97516 | -69.13943 | 36197 ft | 437 kts | 336° |
| 2026-05-09 12:36 | 35.03464 | -69.15506 | 36192 ft | 437 kts | 336° |
| 2026-05-09 12:37 | 35.09402 | -69.17067 | 36190 ft | 437 kts | 336° |
| 2026-05-09 12:37 | 35.15311 | -69.18622 | 36234 ft | 437 kts | 336° |
| 2026-05-09 12:38 | 35.21257 | -69.20188 | 36203 ft | 436 kts | 336° |
| 2026-05-09 12:38 | 35.27184 | -69.21754 | 36194 ft | 436 kts | 336° |
| 2026-05-09 12:39 | 35.33118 | -69.23325 | 36193 ft | 436 kts | 336° |
| 2026-05-09 12:39 | 35.39048 | -69.24895 | 36191 ft | 436 kts | 336° |
| 2026-05-09 12:40 | 35.44993 | -69.26471 | 36185 ft | 436 kts | 336° |
| 2026-05-09 12:40 | 35.50876 | -69.28035 | 36185 ft | 436 kts | 336° |
| 2026-05-09 12:41 | 35.56809 | -69.29614 | 36183 ft | 436 kts | 336° |
| 2026-05-09 12:41 | 35.62739 | -69.31194 | 36183 ft | 436 kts | 336° |
| 2026-05-09 12:42 | 35.68669 | -69.32776 | 36197 ft | 436 kts | 336° |
| 2026-05-09 12:42 | 35.74594 | -69.34359 | 36187 ft | 435 kts | 336° |
| 2026-05-09 12:43 | 35.80476 | -69.35934 | 36183 ft | 436 kts | 336° |
| 2026-05-09 12:43 | 35.86402 | -69.37523 | 36184 ft | 436 kts | 336° |
| 2026-05-09 12:44 | 35.92327 | -69.39113 | 36194 ft | 437 kts | 335° |
| 2026-05-09 12:44 | 35.98291 | -69.40721 | 36182 ft | 439 kts | 335° |
| 2026-05-09 12:45 | 36.04256 | -69.42326 | 36179 ft | 439 kts | 335° |
| 2026-05-09 12:45 | 36.10236 | -69.43936 | 36179 ft | 439 kts | 335° |
| 2026-05-09 12:45 | 36.13172 | -69.44874 | 36157 ft | 427 kts | 327° |
| 2026-05-09 12:46 | 36.14900 | -69.45891 | 36151 ft | 408 kts | 316° |
| 2026-05-09 12:46 | 36.19390 | -69.50019 | 36210 ft | 408 kts | 314° |
| 2026-05-09 12:47 | 36.24994 | -69.54541 | 36179 ft | 411 kts | 313° |
| 2026-05-09 12:47 | 36.28832 | -69.57989 | 36180 ft | 408 kts | 310° |
| 2026-05-09 12:48 | 36.33326 | -69.62280 | 36170 ft | 407 kts | 310° |
| 2026-05-09 12:48 | 36.37824 | -69.66581 | 36170 ft | 408 kts | 310° |
| 2026-05-09 12:49 | 36.42301 | -69.70888 | 36199 ft | 407 kts | 310° |
| 2026-05-09 12:49 | 36.46771 | -69.75207 | 36176 ft | 406 kts | 309° |
| 2026-05-09 12:50 | 36.51206 | -69.79503 | 36175 ft | 406 kts | 309° |
| 2026-05-09 12:50 | 36.55669 | -69.83833 | 36171 ft | 406 kts | 309° |
| 2026-05-09 12:51 | 36.60120 | -69.88159 | 36166 ft | 406 kts | 309° |
| 2026-05-09 12:51 | 36.64565 | -69.92485 | 36164 ft | 406 kts | 309° |
| 2026-05-09 12:52 | 36.69015 | -69.96819 | 36173 ft | 406 kts | 309° |
| 2026-05-09 12:52 | 36.73463 | -70.01161 | 36162 ft | 405 kts | 309° |
| 2026-05-09 12:53 | 36.77897 | -70.05495 | 36164 ft | 405 kts | 309° |
| 2026-05-09 12:53 | 36.82334 | -70.09840 | 36159 ft | 405 kts | 309° |
| 2026-05-09 12:54 | 36.86752 | -70.14171 | 36163 ft | 405 kts | 309° |
| 2026-05-09 12:54 | 36.91187 | -70.18527 | 36165 ft | 405 kts | 309° |
| 2026-05-09 12:55 | 36.95622 | -70.22888 | 36169 ft | 405 kts | 309° |
| 2026-05-09 12:55 | 37.00051 | -70.27253 | 36163 ft | 406 kts | 309° |
| 2026-05-09 12:56 | 37.04492 | -70.31633 | 36157 ft | 406 kts | 309° |
| 2026-05-09 12:56 | 37.08931 | -70.36018 | 36153 ft | 406 kts | 309° |
| 2026-05-09 12:57 | 37.13371 | -70.40411 | 36143 ft | 406 kts | 309° |
| 2026-05-09 12:57 | 37.17806 | -70.44806 | 36155 ft | 406 kts | 309° |
| 2026-05-09 12:58 | 37.22245 | -70.49211 | 36151 ft | 406 kts | 309° |
| 2026-05-09 12:58 | 37.26651 | -70.53594 | 36177 ft | 407 kts | 310° |
| 2026-05-09 12:59 | 37.31096 | -70.58024 | 36148 ft | 409 kts | 310° |
| 2026-05-09 12:59 | 37.35557 | -70.62466 | 36144 ft | 409 kts | 310° |
| 2026-05-09 13:00 | 37.40021 | -70.66920 | 36151 ft | 409 kts | 310° |
| 2026-05-09 13:00 | 37.44481 | -70.71379 | 36142 ft | 410 kts | 310° |
| 2026-05-09 13:01 | 37.48946 | -70.75853 | 36140 ft | 410 kts | 310° |
| 2026-05-09 13:01 | 37.53374 | -70.80297 | 36166 ft | 410 kts | 310° |
| 2026-05-09 13:02 | 37.57834 | -70.84780 | 36139 ft | 410 kts | 310° |
| 2026-05-09 13:02 | 37.62298 | -70.89273 | 36147 ft | 411 kts | 310° |
| 2026-05-09 13:03 | 37.66774 | -70.93784 | 36133 ft | 412 kts | 310° |
| 2026-05-09 13:03 | 37.70941 | -70.98596 | 36125 ft | 396 kts | 299° |
| 2026-05-09 13:04 | 37.74223 | -71.04127 | 36132 ft | 395 kts | 299° |
| 2026-05-09 13:04 | 37.77666 | -71.09571 | 36125 ft | 396 kts | 299° |
| 2026-05-09 13:05 | 37.81038 | -71.15072 | 36128 ft | 395 kts | 298° |
| 2026-05-09 13:05 | 37.84345 | -71.20627 | 36137 ft | 395 kts | 298° |
| 2026-05-09 13:06 | 37.87630 | -71.26152 | 36132 ft | 395 kts | 298° |
| 2026-05-09 13:06 | 37.90938 | -71.31733 | 36111 ft | 395 kts | 298° |
| 2026-05-09 13:07 | 37.94234 | -71.37308 | 36130 ft | 395 kts | 298° |
| 2026-05-09 13:07 | 37.97530 | -71.42895 | 36111 ft | 395 kts | 298° |
| 2026-05-09 13:08 | 38.00804 | -71.48454 | 36113 ft | 395 kts | 298° |
| 2026-05-09 13:08 | 38.04116 | -71.54087 | 36130 ft | 395 kts | 298° |
| 2026-05-09 13:09 | 38.07380 | -71.59648 | 36114 ft | 396 kts | 298° |
| 2026-05-09 13:09 | 38.10668 | -71.65262 | 36114 ft | 396 kts | 298° |
| 2026-05-09 13:10 | 38.13959 | -71.70888 | 36137 ft | 396 kts | 298° |
| 2026-05-09 13:10 | 38.17235 | -71.76497 | 36115 ft | 396 kts | 298° |
| 2026-05-09 13:11 | 38.20516 | -71.82126 | 36109 ft | 396 kts | 298° |
| 2026-05-09 13:11 | 38.23775 | -71.87727 | 36107 ft | 396 kts | 298° |
| 2026-05-09 13:12 | 38.27932 | -71.92516 | 36053 ft | 431 kts | 325° |
| 2026-05-09 13:12 | 38.30887 | -71.93615 | 36083 ft | 454 kts | 338° |
| 2026-05-09 13:12 | 38.34066 | -71.94145 | 36134 ft | 466 kts | 342° |
| 2026-05-09 13:13 | 38.40597 | -71.94762 | 36143 ft | 473 kts | 345° |
| 2026-05-09 13:13 | 38.47211 | -71.95016 | 36099 ft | 478 kts | 347° |
| 2026-05-09 13:14 | 38.53887 | -71.95044 | 36096 ft | 480 kts | 348° |
| 2026-05-09 13:16 | 38.80606 | -71.94774 | 36089 ft | 481 kts | 348° |
| 2026-05-09 13:16 | 38.87314 | -71.94687 | 36097 ft | 481 kts | 348° |
| 2026-05-09 13:17 | 38.93994 | -71.94746 | 36072 ft | 469 kts | 340° |
| 2026-05-09 13:17 | 38.96492 | -71.95474 | 36025 ft | 443 kts | 326° |
| 2026-05-09 13:17 | 38.99107 | -71.97269 | 36062 ft | 420 kts | 315° |
| 2026-05-09 13:18 | 39.04024 | -72.01428 | 36087 ft | 428 kts | 317° |
| 2026-05-09 13:18 | 39.08989 | -72.05619 | 36100 ft | 424 kts | 313° |
| 2026-05-09 13:19 | 39.13645 | -72.10231 | 36073 ft | 422 kts | 311° |
| 2026-05-09 13:19 | 39.18208 | -72.14982 | 36068 ft | 422 kts | 311° |
| 2026-05-09 13:19 | 39.20496 | -72.17366 | 35948 ft | 423 kts | 311° |
| 2026-05-09 13:20 | 39.22767 | -72.19715 | 35696 ft | 414 kts | 311° |
| 2026-05-09 13:20 | 39.24980 | -72.22003 | 35442 ft | 409 kts | 311° |
| 2026-05-09 13:20 | 39.27214 | -72.24340 | 35089 ft | 407 kts | 310° |
| 2026-05-09 13:20 | 39.29370 | -72.26615 | 34741 ft | 406 kts | 310° |
| 2026-05-09 13:21 | 39.31562 | -72.28933 | 34383 ft | 407 kts | 310° |
| 2026-05-09 13:21 | 39.33757 | -72.31253 | 34022 ft | 408 kts | 311° |
| 2026-05-09 13:21 | 39.35951 | -72.33571 | 33613 ft | 408 kts | 311° |
| 2026-05-09 13:21 | 39.38156 | -72.35904 | 33207 ft | 411 kts | 311° |
| 2026-05-09 13:22 | 39.40383 | -72.38262 | 32809 ft | 413 kts | 312° |
| 2026-05-09 13:22 | 39.42610 | -72.40622 | 32400 ft | 416 kts | 312° |
| 2026-05-09 13:22 | 39.44863 | -72.43009 | 32017 ft | 419 kts | 313° |
| 2026-05-09 13:23 | 39.53994 | -72.52696 | 30526 ft | 430 kts | 314° |
| 2026-05-09 13:23 | 39.56314 | -72.55162 | 30074 ft | 434 kts | 314° |
| 2026-05-09 13:24 | 39.58663 | -72.57661 | 29365 ft | 436 kts | 315° |
| 2026-05-09 13:24 | 39.60981 | -72.60126 | 28647 ft | 438 kts | 315° |
| 2026-05-09 13:24 | 39.63340 | -72.62628 | 27949 ft | 428 kts | 315° |
| 2026-05-09 13:24 | 39.65593 | -72.65016 | 27274 ft | 420 kts | 315° |
| 2026-05-09 13:25 | 39.67871 | -72.67443 | 26580 ft | 415 kts | 314° |
| 2026-05-09 13:25 | 39.70058 | -72.69783 | 25941 ft | 411 kts | 314° |
| 2026-05-09 13:25 | 39.74424 | -72.74469 | 24682 ft | 404 kts | 314° |
| 2026-05-09 13:26 | 39.76583 | -72.76786 | 24061 ft | 400 kts | 314° |
| 2026-05-09 13:26 | 39.78634 | -72.79193 | 23408 ft | 392 kts | 306° |
| 2026-05-09 13:26 | 39.80061 | -72.82106 | 22631 ft | 376 kts | 287° |
| 2026-05-09 13:26 | 39.80596 | -72.85361 | 21904 ft | 365 kts | 273° |
| 2026-05-09 13:27 | 39.80779 | -72.88644 | 21272 ft | 364 kts | 274° |
| 2026-05-09 13:27 | 39.81082 | -72.91890 | 20634 ft | 362 kts | 276° |
| 2026-05-09 13:27 | 39.81427 | -72.95126 | 20173 ft | 356 kts | 275° |
| 2026-05-09 13:27 | 39.81635 | -72.98326 | 20069 ft | 354 kts | 271° |
| 2026-05-09 13:28 | 39.81682 | -73.01503 | 20053 ft | 341 kts | 268° |
| 2026-05-09 13:28 | 39.81646 | -73.04446 | 20045 ft | 322 kts | 267° |
| 2026-05-09 13:28 | 39.81592 | -73.07339 | 20042 ft | 318 kts | 267° |
| 2026-05-09 13:28 | 39.81539 | -73.10204 | 20024 ft | 316 kts | 267° |
| 2026-05-09 13:29 | 39.81483 | -73.13063 | 20030 ft | 316 kts | 267° |
| 2026-05-09 13:29 | 39.81419 | -73.15922 | 20026 ft | 316 kts | 267° |
| 2026-05-09 13:29 | 39.81348 | -73.18783 | 19903 ft | 318 kts | 267° |
| 2026-05-09 13:29 | 39.81270 | -73.21644 | 19439 ft | 316 kts | 266° |
| 2026-05-09 13:30 | 39.81193 | -73.24479 | 18925 ft | 313 kts | 270° |
| 2026-05-09 13:30 | 39.81543 | -73.27269 | 18405 ft | 314 kts | 285° |
| 2026-05-09 13:30 | 39.82387 | -73.29899 | 17895 ft | 315 kts | 291° |
| 2026-05-09 13:30 | 39.83316 | -73.32475 | 17379 ft | 313 kts | 290° |
| 2026-05-09 13:31 | 39.84157 | -73.35063 | 16856 ft | 310 kts | 287° |
| 2026-05-09 13:31 | 39.84935 | -73.37682 | 16254 ft | 309 kts | 287° |
| 2026-05-09 13:31 | 39.85710 | -73.40292 | 15574 ft | 307 kts | 287° |
| 2026-05-09 13:31 | 39.86505 | -73.42866 | 14937 ft | 305 kts | 288° |
| 2026-05-09 13:32 | 39.87304 | -73.45376 | 14304 ft | 304 kts | 288° |
| 2026-05-09 13:32 | 39.88925 | -73.50434 | 12988 ft | 301 kts | 288° |
| 2026-05-09 13:32 | 39.89729 | -73.52959 | 12307 ft | 301 kts | 288° |
| 2026-05-09 13:33 | 39.90528 | -73.55473 | 11639 ft | 301 kts | 288° |
| 2026-05-09 13:33 | 39.91319 | -73.57957 | 11309 ft | 289 kts | 287° |
| 2026-05-09 13:33 | 39.91836 | -73.59563 | 11219 ft | 281 kts | 288° |
| 2026-05-09 13:33 | 39.92905 | -73.62625 | 11076 ft | 280 kts | 290° |
| 2026-05-09 13:34 | 39.93474 | -73.64133 | 11057 ft | 280 kts | 291° |
| 2026-05-09 13:34 | 39.94336 | -73.66415 | 11024 ft | 280 kts | 290° |
| 2026-05-09 13:34 | 39.95181 | -73.68701 | 11011 ft | 280 kts | 290° |
| 2026-05-09 13:34 | 39.96022 | -73.70988 | 11008 ft | 280 kts | 290° |
| 2026-05-09 13:35 | 39.96874 | -73.73278 | 11009 ft | 281 kts | 290° |
| 2026-05-09 13:35 | 39.97735 | -73.75563 | 11003 ft | 281 kts | 290° |
| 2026-05-09 13:35 | 39.98600 | -73.77841 | 11011 ft | 280 kts | 290° |
| 2026-05-09 13:35 | 39.99467 | -73.80121 | 10997 ft | 280 kts | 290° |
| 2026-05-09 13:36 | 40.00330 | -73.82395 | 10981 ft | 280 kts | 290° |
| 2026-05-09 13:36 | 40.01227 | -73.84643 | 10981 ft | 283 kts | 298° |
| 2026-05-09 13:36 | 40.02614 | -73.86544 | 10655 ft | 297 kts | 319° |
| 2026-05-09 13:36 | 40.04491 | -73.87714 | 10110 ft | 306 kts | 341° |
| 2026-05-09 13:37 | 40.06629 | -73.87911 | 9661 ft | 309 kts | 5° |
| 2026-05-09 13:37 | 40.08702 | -73.87155 | 9570 ft | 313 kts | 19° |
| 2026-05-09 13:37 | 40.10704 | -73.85982 | 9565 ft | 318 kts | 24° |
| 2026-05-09 13:37 | 40.12660 | -73.84629 | 9412 ft | 319 kts | 30° |
| 2026-05-09 13:38 | 40.14516 | -73.83023 | 9233 ft | 319 kts | 35° |
| 2026-05-09 13:38 | 40.16305 | -73.81311 | 9071 ft | 318 kts | 37° |
| 2026-05-09 13:38 | 40.18044 | -73.79586 | 9004 ft | 316 kts | 37° |
| 2026-05-09 13:38 | 40.19788 | -73.77834 | 9020 ft | 317 kts | 37° |
| 2026-05-09 13:39 | 40.21535 | -73.76066 | 8995 ft | 317 kts | 37° |
| 2026-05-09 13:39 | 40.23287 | -73.74289 | 8756 ft | 319 kts | 37° |
| 2026-05-09 13:39 | 40.25029 | -73.72522 | 8286 ft | 316 kts | 38° |
| 2026-05-09 13:39 | 40.26761 | -73.70771 | 7809 ft | 312 kts | 38° |
| 2026-05-09 13:40 | 40.28470 | -73.69049 | 7362 ft | 310 kts | 38° |
| 2026-05-09 13:40 | 40.30178 | -73.67335 | 6914 ft | 308 kts | 37° |
| 2026-05-09 13:40 | 40.31878 | -73.65636 | 6474 ft | 306 kts | 38° |
| 2026-05-09 13:40 | 40.33570 | -73.63955 | 6002 ft | 304 kts | 37° |
| 2026-05-09 13:41 | 40.35249 | -73.62283 | 5547 ft | 301 kts | 37° |
| 2026-05-09 13:41 | 40.36908 | -73.60629 | 5083 ft | 299 kts | 37° |
| 2026-05-09 13:41 | 40.38563 | -73.58974 | 4646 ft | 297 kts | 37° |
| 2026-05-09 13:41 | 40.40193 | -73.57325 | 4269 ft | 294 kts | 37° |
| 2026-05-09 13:42 | 40.41809 | -73.55673 | 4114 ft | 296 kts | 37° |
| 2026-05-09 13:42 | 40.43414 | -73.54028 | 4033 ft | 296 kts | 37° |
| 2026-05-09 13:42 | 40.45036 | -73.52366 | 4019 ft | 296 kts | 37° |
| 2026-05-09 13:42 | 40.46685 | -73.50675 | 4010 ft | 296 kts | 37° |
| 2026-05-09 13:43 | 40.48286 | -73.49027 | 4005 ft | 297 kts | 37° |
| 2026-05-09 13:43 | 40.49753 | -73.47517 | 4000 ft | 297 kts | 37° |
| 2026-05-09 13:43 | 40.50692 | -73.46551 | 3992 ft | 297 kts | 37° |
| 2026-05-09 13:43 | 40.52014 | -73.45186 | 3993 ft | 297 kts | 37° |
| 2026-05-09 13:44 | 40.53750 | -73.43753 | 3926 ft | 294 kts | 20° |
| 2026-05-09 13:44 | 40.55675 | -73.42908 | 4003 ft | 293 kts | 12° |
| 2026-05-09 13:44 | 40.57657 | -73.42278 | 4005 ft | 292 kts | 8° |
| 2026-05-09 13:44 | 40.59643 | -73.41724 | 3999 ft | 291 kts | 7° |
| 2026-05-09 13:45 | 40.61623 | -73.41192 | 3999 ft | 291 kts | 7° |
| 2026-05-09 13:45 | 40.63612 | -73.40663 | 3998 ft | 292 kts | 7° |
| 2026-05-09 13:45 | 40.65601 | -73.40140 | 4000 ft | 291 kts | 7° |
| 2026-05-09 13:45 | 40.67576 | -73.39618 | 3986 ft | 282 kts | 7° |
| 2026-05-09 13:46 | 40.69410 | -73.39125 | 3978 ft | 261 kts | 7° |
| 2026-05-09 13:46 | 40.71148 | -73.38640 | 4021 ft | 249 kts | 7° |
| 2026-05-09 13:46 | 40.72847 | -73.38197 | 4031 ft | 247 kts | 359° |
| 2026-05-09 13:46 | 40.74473 | -73.38487 | 3802 ft | 232 kts | 327° |
| 2026-05-09 13:47 | 40.75701 | -73.39687 | 3687 ft | 214 kts | 305° |
| 2026-05-09 13:47 | 40.76643 | -73.41188 | 3995 ft | 214 kts | 299° |
| 2026-05-09 13:47 | 40.77538 | -73.42805 | 4093 ft | 219 kts | 297° |
| 2026-05-09 13:47 | 40.78414 | -73.44444 | 4076 ft | 218 kts | 297° |
| 2026-05-09 13:48 | 40.79271 | -73.46076 | 4042 ft | 216 kts | 295° |
| 2026-05-09 13:48 | 40.79978 | -73.47795 | 4035 ft | 210 kts | 287° |
| 2026-05-09 13:48 | 40.80400 | -73.49636 | 3720 ft | 211 kts | 274° |
| 2026-05-09 13:48 | 40.80570 | -73.51546 | 3225 ft | 213 kts | 269° |
| 2026-05-09 13:49 | 40.80652 | -73.53519 | 2711 ft | 217 kts | 268° |
| 2026-05-09 13:49 | 40.80698 | -73.55527 | 2245 ft | 219 kts | 267° |
| 2026-05-09 13:49 | 40.80729 | -73.57500 | 2065 ft | 209 kts | 267° |
| 2026-05-09 13:49 | 40.80751 | -73.59358 | 2026 ft | 197 kts | 262° |
| 2026-05-09 13:50 | 40.80432 | -73.61079 | 2033 ft | 189 kts | 244° |
| 2026-05-09 13:50 | 40.79852 | -73.62582 | 2016 ft | 179 kts | 237° |
| 2026-05-09 13:50 | 40.79058 | -73.63830 | 1978 ft | 177 kts | 222° |
| 2026-05-09 13:50 | 40.78065 | -73.64788 | 2013 ft | 177 kts | 215° |
| 2026-05-09 13:51 | 40.77041 | -73.65606 | 2240 ft | 167 kts | 213° |
| 2026-05-09 13:51 | 40.76048 | -73.66385 | 2130 ft | 163 kts | 213° |
| 2026-05-09 13:51 | 40.75087 | -73.67140 | 2164 ft | 160 kts | 213° |
| 2026-05-09 13:51 | 40.74142 | -73.67887 | 2109 ft | 155 kts | 214° |
| 2026-05-09 13:52 | 40.73242 | -73.68597 | 1985 ft | 151 kts | 214° |
| 2026-05-09 13:52 | 40.72367 | -73.69287 | 1830 ft | 143 kts | 214° |
| 2026-05-09 13:52 | 40.71526 | -73.69946 | 1669 ft | 139 kts | 213° |
| 2026-05-09 13:52 | 40.70688 | -73.70613 | 1476 ft | 141 kts | 213° |
| 2026-05-09 13:53 | 40.69841 | -73.71288 | 1288 ft | 143 kts | 212° |
| 2026-05-09 13:53 | 40.68984 | -73.71969 | 1088 ft | 145 kts | 213° |
| 2026-05-09 13:53 | 40.68113 | -73.72662 | 872 ft | 148 kts | 211° |
| 2026-05-09 13:53 | 40.67217 | -73.73376 | 681 ft | 152 kts | 210° |
| 2026-05-09 13:54 | 40.66299 | -73.74094 | 433 ft | 154 kts | 209° |
| 2026-05-09 13:54 | 40.65372 | -73.74827 | 368 ft | 156 kts | 209° |
| 2026-05-09 13:54 | 40.64470 | -73.75527 | 101 ft | 140 kts | 209° |
| 2026-05-09 13:54 | 40.63727 | -73.76104 | 32 ft | 91 kts | 213° |
| 2026-05-09 13:55 | 40.63355 | -73.76403 | 27 ft | 44 kts | 227° |
| 2026-05-09 13:55 | 40.63238 | -73.76653 | 28 ft | 23 kts | 264° |
| 2026-05-09 13:55 | 40.63238 | -73.76677 | 29 ft | 0 kts | 277° |
| 2026-05-09 13:56 | 40.63238 | -73.76679 | 29 ft | 2 kts | 277° |
| 2026-05-09 13:56 | 40.63243 | -73.76714 | 28 ft | 5 kts | 288° |
| 2026-05-09 13:56 | 40.63262 | -73.76769 | 30 ft | 8 kts | 298° |
| 2026-05-09 13:57 | 40.63297 | -73.76848 | 39 ft | 12 kts | 300° |
| 2026-05-09 13:57 | 40.63347 | -73.76962 | 30 ft | 16 kts | 301° |
| 2026-05-09 13:57 | 40.63412 | -73.77100 | 29 ft | 19 kts | 301° |
| 2026-05-09 13:57 | 40.63487 | -73.77265 | 29 ft | 23 kts | 301° |
| 2026-05-09 13:58 | 40.63571 | -73.77450 | 26 ft | 25 kts | 302° |
| 2026-05-09 13:58 | 40.63659 | -73.77582 | 29 ft | 9 kts | 13° |
| 2026-05-09 13:58 | 40.63719 | -73.77540 | 30 ft | 12 kts | 30° |
| 2026-05-09 13:58 | 40.63805 | -73.77474 | 27 ft | 16 kts | 30° |
| 2026-05-09 13:59 | 40.63912 | -73.77391 | 29 ft | 20 kts | 30° |
| 2026-05-09 13:59 | 40.64041 | -73.77292 | 31 ft | 23 kts | 31° |
| 2026-05-09 13:59 | 40.64187 | -73.77177 | 29 ft | 26 kts | 31° |
| 2026-05-09 13:59 | 40.64338 | -73.77057 | 26 ft | 26 kts | 29° |
| 2026-05-09 14:00 | 40.64512 | -73.76987 | 28 ft | 27 kts | 360° |
| 2026-05-09 14:00 | 40.64555 | -73.77002 | 29 ft | 14 kts | 314° |
| 2026-05-09 14:00 | 40.64649 | -73.77099 | 27 ft | 12 kts | 336° |
| 2026-05-09 14:00 | 40.64722 | -73.77185 | 29 ft | 16 kts | 304° |
| 2026-05-09 14:01 | 40.64772 | -73.77329 | 25 ft | 18 kts | 258° |
| 2026-05-09 14:01 | 40.64754 | -73.77440 | 27 ft | 10 kts | 279° |
| 2026-05-09 14:01 | 40.64727 | -73.77521 | 28 ft | 10 kts | 230° |
| 2026-05-09 14:01 | 40.64706 | -73.77555 | 29 ft | 2 kts | 230° |
| 2026-05-09 14:02 | 40.64702 | -73.77561 | 27 ft | 0 kts | 232° |